Time;durP1;ratioP1;P1;durP2;ratioP2;P2;SDS_P1;SDS_P2;PMS_P1;PMS_P2;Temp;Humidity;BMP_temperature;BMP_pressure;BME280_temperature;BME280_humidity;BME280_pressure;Samples;Min_cycle;Max_cycle;Signal;HPM_P1;HPM_P2
2023/07/07 00:01:54;;;;;;;4.27;2.70;;;;;;;17.28;43.42;100034.66;10398167;28;20898;-67
2023/07/07 00:06:56;;;;;;;4.10;3.20;;;;;;;17.14;44.29;99993.41;10394920;28;20617;-67
2023/07/07 00:11:57;;;;;;;5.50;3.17;;;;;;;17.11;44.16;99979.53;10399345;28;20233;-67
2023/07/07 00:17:01;;;;;;;5.17;3.13;;;;;;;16.28;45.51;100011.09;10401934;28;20248;-67
2023/07/07 00:22:06;;;;;;;4.00;3.10;;;;;;;17.14;44.56;99935.78;10404807;28;20232;-69
2023/07/07 00:27:08;;;;;;;3.90;2.90;;;;;;;18.04;43.12;99935.09;10401869;28;20228;-67
2023/07/07 00:32:09;;;;;;;5.17;3.00;;;;;;;18.02;42.91;99982.44;10405516;28;20324;-69
2023/07/07 00:37:11;;;;;;;3.33;2.90;;;;;;;17.03;44.35;100004.13;10401680;28;20236;-67
2023/07/07 00:42:13;;;;;;;3.00;2.70;;;;;;;18.03;43.45;99940.75;10401234;28;20240;-69
2023/07/07 00:47:15;;;;;;;5.13;3.40;;;;;;;16.31;45.29;100047.63;10399968;28;20236;-69
2023/07/07 00:52:17;;;;;;;3.70;3.20;;;;;;;15.67;47.01;100012.38;10404425;28;20858;-69
2023/07/07 00:57:18;;;;;;;4.23;2.87;;;;;;;15.33;47.77;99972.03;10400604;28;20239;-69
2023/07/07 01:02:25;;;;;;;5.90;3.73;;;;;;;15.69;47.13;99945.56;10402452;28;20278;-67
2023/07/07 01:07:43;;;;;;;3.93;2.83;;;;;;;16.57;45.73;99952.94;10399336;28;20619;-67
2023/07/07 01:12:48;;;;;;;8.67;3.20;;;;;;;15.48;47.42;100009.50;10397792;28;20727;-70
2023/07/07 01:18:13;;;;;;;5.47;3.13;;;;;;;17.36;45.11;99937.00;10397438;28;20240;-69
2023/07/07 01:23:39;;;;;;;3.80;2.70;;;;;;;15.98;46.57;100005.44;10404402;28;20302;-66
2023/07/07 01:29:05;;;;;;;3.83;3.20;;;;;;;15.69;46.54;100073.19;10395629;28;20315;-69
2023/07/07 01:34:10;;;;;;;4.63;3.10;;;;;;;15.30;47.44;100009.34;10393096;28;20251;-69
2023/07/07 01:39:12;;;;;;;3.50;2.97;;;;;;;16.90;45.55;99932.88;10400329;28;20225;-66
2023/07/07 01:44:19;;;;;;;4.17;3.10;;;;;;;15.86;45.84;100091.63;10395251;28;20296;-66
2023/07/07 01:49:20;;;;;;;4.83;3.17;;;;;;;14.18;48.72;100063.69;10392121;28;20238;-69
2023/07/07 01:54:24;;;;;;;4.97;3.20;;;;;;;14.13;49.73;100000.75;10397301;28;20326;-69
2023/07/07 01:59:27;;;;;;;4.20;3.20;;;;;;;14.84;48.14;100024.50;10394014;28;20256;-69
2023/07/07 02:04:54;;;;;;;4.17;2.97;;;;;;;14.87;48.47;99975.59;10396742;28;20232;-69
2023/07/07 02:09:56;;;;;;;5.47;3.50;;;;;;;14.87;47.65;100017.88;10399645;28;20220;-70
2023/07/07 02:14:58;;;;;;;4.10;3.40;;;;;;;13.87;49.54;100044.50;10396999;28;20231;-69
2023/07/07 02:19:59;;;;;;;4.33;3.20;;;;;;;12.99;52.02;99984.00;10396576;28;20228;-69
2023/07/07 02:25:01;;;;;;;5.93;3.70;;;;;;;12.35;52.99;99968.75;10396429;28;20236;-69
2023/07/07 02:30:03;;;;;;;4.77;3.40;;;;;;;12.99;52.35;99907.94;10397422;28;20328;-69
2023/07/07 02:35:06;;;;;;;5.00;3.43;;;;;;;12.72;52.59;99924.72;10397732;28;20264;-68
2023/07/07 02:40:09;;;;;;;6.27;3.60;;;;;;;12.68;52.99;99925.31;10393519;28;20240;-68
2023/07/07 02:45:11;;;;;;;4.27;3.83;;;;;;;13.12;52.17;99908.03;10397110;28;20230;-68
2023/07/07 02:50:12;;;;;;;3.60;2.83;;;;;;;13.54;50.83;99906.19;10394798;28;20319;-68
2023/07/07 02:55:14;;;;;;;5.73;3.10;;;;;;;12.96;51.85;99964.75;10395812;28;20268;-68
2023/07/07 03:00:16;;;;;;;4.63;3.50;;;;;;;13.63;50.29;99917.59;10399508;28;20811;-68
2023/07/07 03:05:19;;;;;;;4.67;3.27;;;;;;;13.54;49.98;100005.66;10393243;28;20703;-68
2023/07/07 03:10:20;;;;;;;3.67;3.10;;;;;;;13.24;50.47;100021.16;10368047;28;20237;-68
2023/07/07 03:15:22;;;;;;;4.13;3.30;;;;;;;13.60;49.85;100004.06;10401159;28;20220;-68
2023/07/07 03:20:26;;;;;;;4.43;3.50;;;;;;;13.88;49.72;100022.78;10408650;28;20216;-68
2023/07/07 03:25:29;;;;;;;5.10;2.97;;;;;;;14.67;48.19;99997.13;10393954;28;20240;-68
2023/07/07 03:30:34;;;;;;;4.57;3.10;;;;;;;15.53;47.05;100041.22;10399618;28;20262;-68
2023/07/07 03:35:36;;;;;;;4.43;3.30;;;;;;;15.99;45.81;100096.97;10398334;28;20228;-68
2023/07/07 03:40:47;;;;;;;4.83;2.97;;;;;;;15.77;46.25;100144.94;10399633;28;20220;-68
2023/07/07 03:45:51;;;;;;;3.30;3.00;;;;;;;14.50;47.51;100219.34;10401363;28;20243;-67
2023/07/07 03:51:02;;;;;;;4.80;3.30;;;;;;;14.66;47.93;100143.63;10401726;28;20287;-67
2023/07/07 03:56:05;;;;;;;4.33;3.43;;;;;;;15.24;47.05;100124.22;10402010;28;20267;-67
2023/07/07 04:01:09;;;;;;;4.10;3.23;;;;;;;14.47;47.91;100160.50;10413015;28;20726;-66
2023/07/07 04:06:12;;;;;;;2.93;2.73;;;;;;;14.97;48.22;100111.78;10401036;28;20754;-67
2023/07/07 04:11:17;;;;;;;5.33;3.00;;;;;;;15.07;47.50;100129.19;10411584;28;20228;-67
2023/07/07 04:16:21;;;;;;;3.63;3.20;;;;;;;14.78;47.25;100185.06;10402269;28;20229;-67
2023/07/07 04:21:26;;;;;;;6.03;3.23;;;;;;;14.55;48.10;100190.78;10415435;28;20228;-66
2023/07/07 04:26:30;;;;;;;4.40;3.00;;;;;;;14.61;48.14;100162.25;10397958;28;20349;-67
2023/07/07 04:31:32;;;;;;;3.40;2.90;;;;;;;15.33;47.10;100112.22;10405253;28;20309;-66
2023/07/07 04:36:33;;;;;;;4.83;3.17;;;;;;;14.26;48.39;100189.22;10409806;28;20232;-67
2023/07/07 04:41:35;;;;;;;5.30;3.27;;;;;;;14.55;47.89;100189.97;10401299;28;20323;-66
2023/07/07 04:46:38;;;;;;;11.03;3.10;;;;;;;15.93;46.26;100102.41;10411312;28;20295;-66
2023/07/07 04:51:41;;;;;;;3.20;2.70;;;;;;;15.50;46.61;100147.69;10400338;28;20985;-66
2023/07/07 04:56:44;;;;;;;3.37;3.00;;;;;;;14.97;47.16;100200.72;10410818;28;20291;-66
2023/07/07 05:01:46;;;;;;;3.80;3.10;;;;;;;16.06;45.51;100154.47;10401611;28;20292;-67
2023/07/07 05:06:48;;;;;;;5.47;3.30;;;;;;;15.60;46.05;100238.97;10400012;28;20242;-66
2023/07/07 05:11:49;;;;;;;4.87;3.43;;;;;;;15.90;45.83;100195.38;10407374;28;20244;-67
2023/07/07 05:16:52;;;;;;;3.60;3.10;;;;;;;15.65;45.95;100214.09;10407607;28;20796;-66
2023/07/07 05:21:54;;;;;;;6.17;3.10;;;;;;;15.57;46.35;100225.94;10411289;28;21066;-67
2023/07/07 05:26:56;;;;;;;5.67;2.97;;;;;;;16.72;44.76;100178.72;10401009;28;20642;-66
2023/07/07 05:31:58;;;;;;;4.47;2.80;;;;;;;16.93;44.48;100166.78;10406762;28;20231;-65
2023/07/07 05:37:00;;;;;;;3.50;2.80;;;;;;;16.08;45.50;100248.72;10397373;28;20889;-66
2023/07/07 05:42:02;;;;;;;4.77;3.20;;;;;;;16.24;45.18;100231.25;10412195;28;20232;-66
2023/07/07 05:47:04;;;;;;;3.13;2.50;;;;;;;16.41;45.14;100243.25;10400701;28;20260;-66
2023/07/07 05:52:08;;;;;;;3.90;2.70;;;;;;;17.44;44.13;100184.72;10407010;28;20296;-66
2023/07/07 05:57:10;;;;;;;3.70;2.93;;;;;;;17.16;44.33;100207.63;10404386;28;20251;-66
2023/07/07 06:02:12;;;;;;;4.70;3.03;;;;;;;16.93;44.55;100237.88;10408861;28;20255;-66
2023/07/07 06:07:13;;;;;;;6.73;3.23;;;;;;;17.65;43.82;100226.84;10408859;28;20654;-65
2023/07/07 06:12:15;;;;;;;4.20;2.80;;;;;;;18.02;43.78;100196.34;10415035;28;20649;-66
2023/07/07 06:17:17;;;;;;;6.73;3.70;;;;;;;16.95;44.95;100254.72;10407489;28;20323;-66
2023/07/07 06:22:18;;;;;;;4.10;2.60;;;;;;;18.16;43.64;100191.59;10407461;28;20277;-66
2023/07/07 06:27:20;;;;;;;4.03;2.70;;;;;;;17.15;44.01;100292.47;10398064;28;20232;-66
2023/07/07 06:32:22;;;;;;;2.63;2.33;;;;;;;18.17;43.05;100274.47;10406715;28;20237;-67
2023/07/07 06:37:24;;;;;;;3.10;2.80;;;;;;;18.37;42.68;100288.72;10408235;28;20232;-67
2023/07/07 06:42:26;;;;;;;4.80;2.60;;;;;;;17.60;43.51;100312.44;10411720;28;20225;-68
2023/07/07 06:47:28;;;;;;;5.37;2.63;;;;;;;18.87;42.31;100303.16;10397027;28;20586;-68
2023/07/07 06:52:29;;;;;;;5.37;2.57;;;;;;;18.57;42.83;100290.34;10393128;28;20777;-68
2023/07/07 06:57:31;;;;;;;4.10;3.30;;;;;;;19.51;41.26;100269.09;10401014;28;20236;-68
2023/07/07 07:02:33;;;;;;;4.30;2.60;;;;;;;19.84;41.17;100235.22;10395995;28;20780;-67
2023/07/07 07:07:35;;;;;;;4.45;3.00;;;;;;;20.40;40.18;100253.88;10408496;28;20239;-68
2023/07/07 07:12:36;;;;;;;3.88;2.35;;;;;;;20.31;40.25;100251.50;10408722;28;20657;-67
2023/07/07 07:17:38;;;;;;;3.50;2.80;;;;;;;20.78;40.04;100252.50;10407589;28;20319;-67
2023/07/07 07:22:40;;;;;;;4.95;2.70;;;;;;;21.11;38.94;100242.78;10416480;28;20582;-68
2023/07/07 07:27:42;;;;;;;3.60;2.53;;;;;;;20.78;39.66;100253.31;10405382;28;20305;-68
2023/07/07 07:32:43;;;;;;;4.70;2.78;;;;;;;21.11;40.71;100238.16;10410110;28;20232;-68
2023/07/07 07:37:45;;;;;;;3.88;2.75;;;;;;;20.24;39.89;100269.81;10407350;28;20705;-68
2023/07/07 07:42:47;;;;;;;6.07;3.42;;;;;;;20.40;40.42;100292.72;10414033;28;20310;-68
2023/07/07 07:47:50;;;;;;;5.53;3.35;;;;;;;20.82;40.43;100234.63;10415033;28;20282;-68
2023/07/07 07:52:52;;;;;;;7.68;3.00;;;;;;;21.89;38.89;100196.72;10413880;28;20236;-65
2023/07/07 07:57:53;;;;;;;2.90;2.53;;;;;;;21.33;39.07;100223.84;10412963;28;20252;-65
2023/07/07 08:02:55;;;;;;;4.95;2.83;;;;;;;22.06;39.51;100185.81;10410040;28;20383;-66
2023/07/07 08:07:58;;;;;;;4.88;3.00;;;;;;;22.25;38.38;100191.78;10396556;28;20239;-65
2023/07/07 08:12:59;;;;;;;3.58;2.60;;;;;;;21.53;38.80;100242.47;10409817;28;20227;-66
2023/07/07 08:18:02;;;;;;;5.05;2.72;;;;;;;22.23;39.02;100218.47;10404070;28;20240;-65
2023/07/07 08:23:05;;;;;;;3.67;2.67;;;;;;;22.85;38.50;100170.94;10410896;28;20247;-65
2023/07/07 08:28:06;;;;;;;2.85;2.45;;;;;;;23.15;38.48;100161.44;10408886;28;20306;-65
2023/07/07 08:33:09;;;;;;;5.18;2.80;;;;;;;23.00;39.26;100153.91;10407418;28;20700;-65
2023/07/07 08:38:10;;;;;;;4.10;2.78;;;;;;;23.08;38.23;100162.47;10422089;28;20270;-66
2023/07/07 08:43:12;;;;;;;4.80;2.90;;;;;;;22.70;39.19;100201.63;10411192;28;20319;-65
2023/07/07 08:48:29;;;;;;;5.50;2.92;;;;;;;23.44;37.97;100164.66;10405002;28;20311;-66
2023/07/07 08:53:47;;;;;;;14.38;7.18;;;;;;;22.75;38.19;100207.13;10399485;28;20240;-66
2023/07/07 08:59:12;;;;;;;5.45;3.35;;;;;;;23.88;38.19;100149.94;10408816;28;20474;-65
2023/07/07 09:04:39;;;;;;;3.17;2.67;;;;;;;24.17;37.05;100155.84;10395982;28;20304;-65
2023/07/07 09:09:47;;;;;;;7.38;3.00;;;;;;;24.65;36.74;100137.41;10408679;28;20227;-65
2023/07/07 09:14:52;;;;;;;4.95;2.65;;;;;;;24.29;37.44;100139.22;10406453;28;20251;-66
2023/07/07 09:19:57;;;;;;;5.78;2.80;;;;;;;23.26;37.62;100165.88;10409676;28;20266;-65
2023/07/07 09:25:07;;;;;;;4.57;3.00;;;;;;;24.81;36.56;100123.75;10402224;28;20324;-66
2023/07/07 09:30:35;;;;;;;4.63;2.92;;;;;;;24.67;36.77;100118.78;10404683;28;20228;-66
2023/07/07 09:35:41;;;;;;;4.60;2.72;;;;;;;24.50;37.06;100145.56;10396997;28;20265;-65
2023/07/07 09:40:58;;;;;;;3.75;2.92;;;;;;;24.39;37.28;100130.22;10399835;28;20237;-67
2023/07/07 09:46:01;;;;;;;7.55;2.85;;;;;;;25.06;35.89;100125.69;10365878;23;20959;-35
2023/07/07 09:51:15;;;;;;;4.32;3.05;;;;;;;25.14;36.41;100105.97;10293773;28;20237;-36
2023/07/07 09:56:21;;;;;;;5.85;3.10;;;;;;;25.78;35.31;100082.59;10275424;28;20231;-35
2023/07/07 10:01:29;;;;;;;3.58;2.60;;;;;;;25.20;35.92;100137.78;10279513;28;20257;-35
2023/07/07 10:06:41;;;;;;;4.28;2.90;;;;;;;25.87;35.44;100088.31;10276362;28;20318;-35
2023/07/07 10:11:45;;;;;;;3.55;2.72;;;;;;;26.47;34.59;100076.50;10273576;28;20253;-35
2023/07/07 10:17:01;;;;;;;4.35;3.10;;;;;;;26.31;34.97;100079.34;10287471;28;20226;-35
2023/07/07 10:22:05;;;;;;;4.32;2.83;;;;;;;25.81;35.40;100073.84;10282520;28;20236;-36
2023/07/07 10:27:17;;;;;;;4.90;2.85;;;;;;;27.26;34.61;100043.47;10274105;28;20301;-35
2023/07/07 10:32:22;;;;;;;4.60;3.25;;;;;;;26.56;34.93;100070.13;10274983;28;20241;-35
2023/07/07 10:37:31;;;;;;;6.53;3.30;;;;;;;25.82;35.05;100086.41;10277769;28;20266;-35
2023/07/07 10:42:33;;;;;;;5.03;2.97;;;;;;;26.92;34.60;100063.56;10271754;28;20309;-35
2023/07/07 10:47:36;;;;;;;4.57;3.15;;;;;;;26.26;33.97;100100.50;10276284;28;20697;-35
2023/07/07 10:52:47;;;;;;;5.00;3.65;;;;;;;27.00;33.94;100093.16;10274777;28;20952;-35
2023/07/07 10:57:59;;;;;;;6.28;2.90;;;;;;;27.84;34.10;100056.31;10274830;28;20226;-35
2023/07/07 11:06:42;;;;;;;6.20;3.40;;;;;;;25.43;35.60;100048.72;10469704;28;21415;-72
2023/07/07 11:12:28;;;;;;;7.50;3.47;;;;;;;26.77;34.36;100056.28;10472035;28;20233;-72
2023/07/07 11:17:48;;;;;;;5.40;3.70;;;;;;;26.37;32.30;100091.13;10468266;28;20230;-72
2023/07/07 11:23:25;;;;;;;5.95;3.47;;;;;;;27.69;32.56;100043.53;10481007;28;20321;-70
2023/07/07 11:28:35;;;;;;;6.20;4.03;;;;;;;27.49;32.75;100052.84;10473081;28;20249;-72
2023/07/07 11:33:52;;;;;;;5.85;3.88;;;;;;;27.34;32.62;100050.28;10470933;28;20235;-72
2023/07/07 11:39:28;;;;;;;5.50;3.70;;;;;;;27.32;32.78;100031.34;10465214;28;20218;-72
2023/07/07 11:45:11;;;;;;;6.28;4.07;;;;;;;27.48;32.93;100043.81;10475082;28;20254;-72
2023/07/07 11:50:19;;;;;;;6.10;3.88;;;;;;;26.23;32.46;100062.69;10471596;28;20894;-72
2023/07/07 11:55:27;;;;;;;5.28;4.07;;;;;;;28.62;31.87;100023.00;10474756;28;20227;-71
2023/07/07 12:00:51;;;;;;;5.60;3.95;;;;;;;26.71;32.15;100055.47;10484796;28;20297;-72
2023/07/07 12:05:55;;;;;;;4.80;3.55;;;;;;;27.95;30.96;100021.25;10480634;28;20277;-72
2023/07/07 12:10:59;;;;;;;5.78;3.83;;;;;;;28.84;31.86;100006.66;10476704;28;20258;-71
2023/07/07 12:16:20;;;;;;;6.22;4.53;;;;;;;28.55;32.24;100015.94;10455643;28;20232;-72
2023/07/07 12:21:27;;;;;;;5.47;3.80;;;;;;;29.47;30.95;99985.94;10454051;28;20223;-72
2023/07/07 12:26:38;;;;;;;5.97;4.55;;;;;;;28.63;31.03;100006.19;10437259;28;20228;-72
2023/07/07 12:31:45;;;;;;;6.68;4.63;;;;;;;28.36;29.65;99993.97;10444287;28;20289;-72
2023/07/07 12:36:47;;;;;;;7.97;4.45;;;;;;;28.54;29.46;99997.81;10448630;28;20722;-72
2023/07/07 12:41:49;;;;;;;7.47;5.03;;;;;;;28.27;29.40;100003.19;10454189;28;20778;-71
2023/07/07 12:46:50;;;;;;;8.45;4.28;;;;;;;28.57;29.21;100027.47;10445611;28;20258;-70
2023/07/07 12:52:01;;;;;;;7.85;4.45;;;;;;;28.42;29.40;100000.19;10447775;28;20273;-70
2023/07/07 12:57:21;;;;;;;6.35;4.30;;;;;;;27.75;29.40;100006.69;10443481;28;20322;-73
2023/07/07 13:02:25;;;;;;;6.30;4.28;;;;;;;28.36;29.44;99982.97;10434803;28;20310;-70
2023/07/07 13:07:29;;;;;;;7.40;4.45;;;;;;;29.14;29.79;99943.91;10431977;28;20267;-72
2023/07/07 13:12:37;;;;;;;7.93;4.78;;;;;;;28.15;29.92;99982.44;10429499;28;20246;-71
2023/07/07 13:17:39;;;;;;;7.65;5.07;;;;;;;28.30;29.29;99961.34;10444960;28;20228;-70
2023/07/07 13:22:46;;;;;;;7.18;4.63;;;;;;;29.55;28.13;99945.78;10450723;28;20254;-70
2023/07/07 13:27:51;;;;;;;6.15;4.30;;;;;;;29.54;28.25;99966.22;10434471;28;20253;-70
2023/07/07 13:32:55;;;;;;;5.32;3.88;;;;;;;29.85;27.72;99941.53;10439150;28;20248;-72
2023/07/07 13:38:06;;;;;;;7.80;4.75;;;;;;;27.96;28.72;99979.69;10443539;28;20233;-72
2023/07/07 13:43:36;;;;;;;7.25;4.53;;;;;;;29.97;28.44;99934.66;10431148;28;20224;-72
2023/07/07 13:48:45;;;;;;;7.00;4.40;;;;;;;30.39;28.92;99927.84;10434892;28;20236;-72
2023/07/07 13:53:47;;;;;;;5.88;3.92;;;;;;;29.98;27.14;99952.84;10435659;28;20254;-72
2023/07/07 13:58:52;;;;;;;8.82;4.40;;;;;;;29.64;27.96;99910.03;10453599;28;20338;-72
2023/07/07 14:03:57;;;;;;;8.15;4.43;;;;;;;30.37;27.29;99929.28;10443296;28;20230;-71
2023/07/07 14:08:59;;;;;;;5.85;4.15;;;;;;;30.72;28.04;99930.31;10456736;28;20255;-72
2023/07/07 14:14:01;;;;;;;7.00;4.30;;;;;;;30.16;27.06;99927.06;10443203;28;20234;-72
2023/07/07 14:19:27;;;;;;;5.97;4.07;;;;;;;30.54;28.15;99904.56;10438835;28;20726;-72
2023/07/07 14:24:31;;;;;;;5.68;4.40;;;;;;;29.27;27.88;99912.75;10441927;28;20224;-72
2023/07/07 14:29:41;;;;;;;5.70;3.63;;;;;;;29.55;26.94;99918.22;10441092;28;20228;-72
2023/07/07 14:34:46;;;;;;;5.38;3.63;;;;;;;29.02;26.85;99924.28;10440806;28;20319;-72
2023/07/07 14:39:50;;;;;;;6.72;3.65;;;;;;;30.06;26.36;99921.75;10432460;28;20323;-72
2023/07/07 14:44:54;;;;;;;4.82;3.25;;;;;;;30.05;27.94;99920.16;10431672;28;20591;-72
2023/07/07 14:50:05;;;;;;;11.30;3.70;;;;;;;30.56;26.06;99879.41;10433182;28;20303;-72
2023/07/07 14:55:13;;;;;;;5.53;3.60;;;;;;;28.94;26.53;99926.63;10435254;28;20236;-70
2023/07/07 15:00:31;;;;;;;8.73;3.60;;;;;;;29.80;27.28;99921.56;10437006;28;20658;-72
2023/07/07 15:05:34;;;;;;;5.10;3.45;;;;;;;30.31;26.85;99895.47;10410023;28;20722;-72
2023/07/07 15:10:38;;;;;;;6.05;3.67;;;;;;;30.05;25.71;99900.84;10431016;28;20219;-72
2023/07/07 15:15:40;;;;;;;6.45;3.53;;;;;;;29.94;26.98;99899.44;10393175;28;20244;-72
2023/07/07 15:20:44;;;;;;;6.15;3.70;;;;;;;30.40;26.50;99896.34;10395433;28;20232;-72
2023/07/07 15:25:47;;;;;;;7.57;3.58;;;;;;;30.96;24.71;99896.81;10429856;28;20736;-72
2023/07/07 15:30:49;;;;;;;9.10;3.28;;;;;;;31.16;24.09;99886.28;10427802;28;20339;-72
2023/07/07 15:35:51;;;;;;;6.97;4.05;;;;;;;31.21;25.10;99886.13;10430738;28;20721;-73
2023/07/07 15:40:52;;;;;;;6.90;3.50;;;;;;;31.80;26.22;99871.88;10426316;28;20259;-70
2023/07/07 15:45:54;;;;;;;6.45;3.83;;;;;;;31.30;26.58;99864.84;10403032;22;20244;-34
2023/07/07 15:50:56;;;;;;;6.20;3.90;;;;;;;31.44;26.12;99859.19;10327560;28;20328;-37
2023/07/07 15:55:58;;;;;;;6.07;3.58;;;;;;;30.48;25.93;99878.19;10329084;28;20253;-34
2023/07/07 16:01:01;;;;;;;6.75;4.13;;;;;;;30.96;27.16;99849.84;10330822;28;20312;-37
2023/07/07 16:06:03;;;;;;;8.65;4.05;;;;;;;31.88;25.38;99848.13;10331124;28;20257;-37
2023/07/07 16:11:16;;;;;;;6.90;4.35;;;;;;;30.82;25.27;99854.66;10333201;28;20229;-37
2023/07/07 16:16:21;;;;;;;6.07;3.92;;;;;;;31.86;25.46;99853.19;10326008;28;20288;-37
2023/07/07 16:21:25;;;;;;;10.80;4.53;;;;;;;31.23;26.06;99841.59;10318631;28;20245;-37
2023/07/07 16:26:31;;;;;;;7.97;4.22;;;;;;;30.59;25.48;99868.53;10328420;28;20245;-35
2023/07/07 16:31:33;;;;;;;4.75;3.83;;;;;;;30.73;26.35;99862.09;10320581;28;20229;-37
2023/07/07 16:36:37;;;;;;;6.40;4.15;;;;;;;31.30;25.13;99870.38;10333175;28;20324;-37
2023/07/07 16:41:38;;;;;;;6.13;3.88;;;;;;;31.54;25.05;99856.09;10327279;28;20233;-37
2023/07/07 16:46:40;;;;;;;6.30;4.10;;;;;;;31.67;25.62;99850.75;10335561;28;20230;-37
2023/07/07 16:51:43;;;;;;;8.05;4.50;;;;;;;31.32;24.90;99862.56;10326865;28;20234;-37
2023/07/07 16:56:44;;;;;;;7.45;4.70;;;;;;;31.85;24.51;99852.38;10327832;28;20249;-38
2023/07/07 17:01:46;;;;;;;6.78;4.20;;;;;;;31.71;25.00;99847.00;10328023;28;20589;-37
2023/07/07 17:06:50;;;;;;;5.43;4.10;;;;;;;31.50;24.82;99857.09;10321435;28;20244;-37
2023/07/07 17:11:52;;;;;;;7.75;4.45;;;;;;;30.60;26.13;99842.56;10328346;28;20392;-37
2023/07/07 17:16:54;;;;;;;7.80;5.07;;;;;;;31.90;26.39;99827.31;10324505;28;20241;-38
2023/07/07 17:22:02;;;;;;;6.68;4.82;;;;;;;32.06;26.59;99824.81;10326793;28;20417;-35
2023/07/07 17:27:04;;;;;;;6.63;4.80;;;;;;;31.50;26.54;99840.50;10325219;28;20234;-35
2023/07/07 17:32:08;;;;;;;7.57;5.10;;;;;;;31.87;26.40;99847.31;10328228;28;20231;-38
2023/07/07 17:37:10;;;;;;;8.45;5.50;;;;;;;31.78;26.54;99838.22;10321383;28;20285;-38
2023/07/07 17:42:12;;;;;;;7.63;5.22;;;;;;;31.71;27.29;99824.03;10327642;28;20241;-37
2023/07/07 17:47:14;;;;;;;9.38;4.75;;;;;;;30.72;27.34;99844.72;10320230;28;20229;-37
2023/07/07 17:52:15;;;;;;;8.25;5.15;;;;;;;31.84;27.10;99822.28;10339287;28;20304;-37
2023/07/07 17:57:18;;;;;;;6.90;4.70;;;;;;;31.35;27.32;99836.25;10331846;28;20296;-37
2023/07/07 18:02:20;;;;;;;8.40;4.82;;;;;;;31.36;27.02;99837.88;10325785;28;20242;-37
2023/07/07 18:07:21;;;;;;;8.77;5.28;;;;;;;30.72;28.07;99827.31;10329508;28;20329;-37
2023/07/07 18:12:23;;;;;;;6.80;4.70;;;;;;;30.70;28.33;99844.22;10323429;28;20659;-38
2023/07/07 18:17:25;;;;;;;9.10;5.55;;;;;;;31.08;27.64;99834.59;10326890;28;20770;-37
2023/07/07 18:22:47;;;;;;;6.72;4.90;;;;;;;30.87;27.21;99835.19;10318425;28;20237;-38
2023/07/07 18:27:49;;;;;;;9.10;5.18;;;;;;;30.19;27.66;99846.38;10321630;28;20237;-37
2023/07/07 18:32:51;;;;;;;8.50;5.47;;;;;;;30.11;27.87;99829.78;10324118;28;20300;-37
2023/07/07 18:37:56;;;;;;;8.15;5.47;;;;;;;29.78;27.37;99833.63;10327729;28;20230;-37
2023/07/07 18:42:59;;;;;;;7.32;5.10;;;;;;;29.56;28.41;99822.56;10324174;28;20578;-37
2023/07/07 18:48:01;;;;;;;8.77;5.35;;;;;;;29.37;28.21;99833.75;10317290;28;20722;-36
2023/07/07 18:53:04;;;;;;;7.80;5.30;;;;;;;29.42;28.42;99811.56;10320607;28;20292;-36
2023/07/07 18:58:10;;;;;;;9.85;6.25;;;;;;;29.54;27.57;99825.63;10331470;28;20241;-36
2023/07/07 19:03:13;;;;;;;8.25;5.57;;;;;;;29.04;28.27;99818.19;10316930;28;20238;-37
2023/07/07 19:08:15;;;;;;;8.38;5.95;;;;;;;28.67;27.80;99836.56;10327879;28;20225;-37
2023/07/07 19:13:19;;;;;;;8.85;5.85;;;;;;;28.29;28.64;99809.22;10326116;28;20229;-37
2023/07/07 19:18:38;;;;;;;8.32;5.72;;;;;;;27.60;29.36;99831.78;10327884;28;20293;-36
2023/07/07 19:23:40;;;;;;;11.93;6.78;;;;;;;27.45;30.17;99804.53;10319205;28;20343;-37
2023/07/07 19:28:43;;;;;;;10.80;5.80;;;;;;;27.57;29.60;99818.63;10320376;28;20634;-37
2023/07/07 19:33:45;;;;;;;8.93;5.72;;;;;;;27.38;29.63;99815.91;10319441;28;20733;-36
2023/07/07 19:38:51;;;;;;;13.82;6.38;;;;;;;26.70;30.07;99827.97;10323893;28;20242;-37
2023/07/07 19:43:55;;;;;;;11.93;6.40;;;;;;;26.38;30.48;99827.53;10339290;28;20240;-36
2023/07/07 19:48:58;;;;;;;9.13;6.13;;;;;;;27.40;29.66;99805.44;10344717;28;20229;-36
2023/07/07 19:54:01;;;;;;;9.43;5.95;;;;;;;26.37;30.73;99825.06;10337766;28;20272;-36
2023/07/07 19:59:09;;;;;;;11.23;5.68;;;;;;;25.87;30.90;99836.16;10316887;28;20246;-36
2023/07/07 20:04:11;;;;;;;9.15;5.85;;;;;;;25.83;31.07;99826.91;10320146;28;20238;-35
2023/07/07 20:09:21;;;;;;;7.50;5.32;;;;;;;25.97;30.90;99827.84;10318143;28;20906;-37
2023/07/07 20:14:24;;;;;;;11.20;6.22;;;;;;;25.54;31.02;99845.97;10330947;28;20245;-37
2023/07/07 20:19:26;;;;;;;9.68;6.07;;;;;;;25.85;30.95;99849.34;10327538;28;20229;-38
2023/07/07 20:24:28;;;;;;;8.77;6.00;;;;;;;25.80;31.18;99839.25;10332599;28;20826;-37
2023/07/07 20:29:30;;;;;;;11.30;6.53;;;;;;;26.12;31.15;99824.16;10334151;28;20234;-37
2023/07/07 20:34:32;;;;;;;8.93;6.10;;;;;;;26.44;30.48;99827.47;10326278;28;20244;-36
2023/07/07 20:39:33;;;;;;;10.50;6.47;;;;;;;26.64;30.17;99840.16;10328665;28;20252;-35
2023/07/07 20:44:35;;;;;;;8.25;6.55;;;;;;;25.50;31.19;99842.16;10313865;28;20237;-36
2023/07/07 20:49:37;;;;;;;8.18;5.35;;;;;;;25.80;31.14;99831.00;10316867;28;20229;-36
2023/07/07 20:54:39;;;;;;;8.35;5.90;;;;;;;25.88;30.87;99836.97;10319776;28;20234;-36
2023/07/07 20:59:41;;;;;;;10.18;6.15;;;;;;;25.25;31.45;99833.84;10314842;28;20234;-36
2023/07/07 21:04:43;;;;;;;11.50;6.07;;;;;;;25.67;31.10;99842.59;10318194;28;20242;-36
2023/07/07 21:09:45;;;;;;;9.73;6.30;;;;;;;25.39;31.74;99839.50;10322901;28;20229;-37
2023/07/07 21:14:48;;;;;;;12.70;6.00;;;;;;;24.95;31.98;99853.94;10318379;28;20237;-36
2023/07/07 21:19:49;;;;;;;9.40;5.57;;;;;;;25.48;31.26;99870.66;10327731;28;20234;-36
2023/07/07 21:24:51;;;;;;;9.27;6.18;;;;;;;26.11;30.83;99860.91;10313488;28;20655;-36
2023/07/07 21:29:53;;;;;;;11.23;6.57;;;;;;;25.47;32.08;99830.69;10307145;28;20266;-36
2023/07/07 21:34:55;;;;;;;9.45;6.30;;;;;;;24.63;32.55;99860.56;10310261;28;20230;-36
2023/07/07 21:39:57;;;;;;;9.10;5.88;;;;;;;25.15;32.05;99833.81;10309068;28;20683;-36
2023/07/07 21:44:59;;;;;;;10.13;6.60;;;;;;;25.06;32.03;99850.03;10318563;28;20573;-36
2023/07/07 21:50:01;;;;;;;8.23;5.68;;;;;;;25.09;32.11;99834.97;10316767;28;20276;-37
2023/07/07 21:55:04;;;;;;;8.35;5.93;;;;;;;24.67;32.41;99849.88;10310068;28;20297;-35
2023/07/07 22:00:20;;;;;;;11.07;5.88;;;;;;;25.90;31.52;99838.34;10314690;28;20744;-36
2023/07/07 22:05:24;;;;;;;8.85;6.07;;;;;;;24.57;33.05;99864.41;10327318;28;20324;-36
2023/07/07 22:10:35;;;;;;;9.15;6.03;;;;;;;25.61;32.12;99832.78;10329434;28;20210;-36
2023/07/07 22:15:39;;;;;;;10.52;6.22;;;;;;;23.76;34.00;99853.19;10322684;28;20613;-36
2023/07/07 22:20:50;;;;;;;11.20;6.57;;;;;;;23.14;34.96;99840.47;10315497;28;20289;-36
2023/07/07 22:25:51;;;;;;;9.20;6.22;;;;;;;23.38;34.94;99830.72;10314201;28;20301;-36
2023/07/07 22:30:56;;;;;;;9.48;5.80;;;;;;;23.71;35.21;99833.25;10313803;28;20712;-36
2023/07/07 22:36:00;;;;;;;10.82;5.57;;;;;;;23.96;34.40;99857.03;10315948;28;20268;-36
2023/07/07 22:41:02;;;;;;;9.90;6.30;;;;;;;22.94;35.74;99846.63;10325946;28;20652;-36
2023/07/07 22:46:19;;;;;;;7.47;5.35;;;;;;;23.42;34.72;99820.88;10315654;28;20256;-36
2023/07/07 22:51:21;;;;;;;8.13;5.05;;;;;;;24.63;33.11;99855.09;10319889;28;20249;-36
2023/07/07 22:56:25;;;;;;;9.02;5.63;;;;;;;22.90;34.94;99858.06;10314743;28;20253;-36
2023/07/07 23:01:28;;;;;;;10.05;5.30;;;;;;;23.81;34.03;99822.34;10308569;28;20907;-35
2023/07/07 23:06:30;;;;;;;8.20;5.43;;;;;;;24.01;34.32;99832.44;10324077;28;20237;-36
2023/07/07 23:11:32;;;;;;;8.55;5.53;;;;;;;25.00;32.91;99864.00;10315456;28;20242;-35
2023/07/07 23:16:34;;;;;;;9.90;5.43;;;;;;;22.06;36.40;99853.41;10316123;28;20802;-36
2023/07/07 23:21:35;;;;;;;9.63;6.55;;;;;;;23.57;35.22;99802.91;10314164;28;20243;-35
2023/07/07 23:26:37;;;;;;;9.38;5.50;;;;;;;22.76;36.38;99870.56;10328002;28;20256;-36
2023/07/07 23:31:39;;;;;;;8.65;6.32;;;;;;;21.45;37.91;99834.56;10316167;28;20242;-36
2023/07/07 23:36:41;;;;;;;9.73;6.05;;;;;;;23.69;35.01;99838.19;10315020;28;20277;-36